Time;durP1;ratioP1;P1;durP2;ratioP2;P2;SDS_P1;SDS_P2;PMS_P1;PMS_P2;Temp;Humidity;BMP_temperature;BMP_pressure;BME280_temperature;BME280_humidity;BME280_pressure;Samples;Min_cycle;Max_cycle;Signal;HPM_P1;HPM_P2
2022/04/18 00:00:07;;;;;;;7.50;3.67;;;7.70;9.40;;;;;;5000058;28;20461;-81
2022/04/18 00:02:34;;;;;;;11.30;4.43;;;7.70;9.70;;;;;;5000681;28;20462;-81
2022/04/18 00:05:01;;;;;;;5.90;3.33;;;7.70;9.20;;;;;;5000571;28;20501;-81
2022/04/18 00:07:29;;;;;;;8.90;4.17;;;7.70;10.00;;;;;;5001090;28;20510;-81
2022/04/18 00:09:56;;;;;;;7.70;3.47;;;7.90;8.40;;;;;;4999763;28;20899;-81
2022/04/18 00:12:23;;;;;;;7.03;3.70;;;7.80;8.10;;;;;;5000159;28;20470;-81
2022/04/18 00:14:49;;;;;;;7.83;3.90;;;7.90;7.70;;;;;;5000469;28;20465;-81
2022/04/18 00:17:16;;;;;;;8.70;3.67;;;7.90;7.40;;;;;;5001332;28;20454;-81
2022/04/18 00:19:43;;;;;;;8.87;3.40;;;7.90;7.40;;;;;;4999689;28;20461;-81
2022/04/18 00:22:10;;;;;;;6.90;3.60;;;8.00;6.90;;;;;;5000357;28;20469;-81
2022/04/18 00:24:38;;;;;;;6.77;3.60;;;8.00;6.60;;;;;;4999944;28;20481;-81
2022/04/18 00:27:05;;;;;;;7.03;3.70;;;8.20;6.50;;;;;;4999786;28;20460;-81
2022/04/18 00:29:32;;;;;;;6.80;3.70;;;8.10;6.10;;;;;;4999995;28;20489;-82
2022/04/18 00:31:59;;;;;;;6.93;3.17;;;8.10;6.50;;;;;;5000121;28;20470;-81
2022/04/18 00:34:26;;;;;;;6.03;3.50;;;8.10;6.10;;;;;;5000662;28;20458;-81
2022/04/18 00:36:52;;;;;;;12.60;4.40;;;8.00;6.10;;;;;;5000638;28;20464;-81
2022/04/18 00:39:20;;;;;;;6.73;3.20;;;8.10;5.60;;;;;;4998930;28;20460;-81
2022/04/18 00:41:48;;;;;;;8.90;3.50;;;8.00;6.10;;;;;;4999361;28;20976;-81
2022/04/18 00:44:15;;;;;;;7.03;3.70;;;8.10;5.40;;;;;;4999891;28;20454;-81
2022/04/18 00:46:42;;;;;;;8.73;3.63;;;8.10;5.60;;;;;;5000523;28;21210;-82
2022/04/18 00:49:09;;;;;;;8.83;4.17;;;8.00;5.90;;;;;;4999580;28;20454;-81
2022/04/18 00:51:35;;;;;;;7.30;3.13;;;8.00;5.80;;;;;;4999611;28;20488;-81
2022/04/18 00:54:03;;;;;;;6.90;3.47;;;7.80;7.00;;;;;;5000452;28;20442;-82
2022/04/18 00:56:30;;;;;;;7.10;3.60;;;7.70;7.00;;;;;;4999949;28;20458;-81
2022/04/18 00:58:59;;;;;;;6.63;3.70;;;7.70;7.50;;;;;;4999222;28;21090;-81
2022/04/18 01:01:26;;;;;;;7.00;4.47;;;7.70;8.70;;;;;;4998934;28;20456;-81
2022/04/18 01:03:53;;;;;;;6.33;3.50;;;7.60;9.20;;;;;;4999368;28;20481;-82
2022/04/18 01:06:26;;;;;;;6.37;3.43;;;7.50;8.70;;;;;;4999460;28;20482;-81
2022/04/18 01:08:53;;;;;;;8.20;3.63;;;7.30;9.50;;;;;;4999000;28;20529;-81
2022/04/18 01:11:20;;;;;;;6.77;3.97;;;7.30;10.10;;;;;;4998895;28;20456;-81
2022/04/18 01:13:48;;;;;;;5.83;2.50;;;7.20;10.60;;;;;;4999323;28;20470;-81
2022/04/18 01:16:17;;;;;;;6.10;3.37;;;7.30;10.30;;;;;;4999308;28;20450;-81
2022/04/18 01:18:45;;;;;;;6.67;3.60;;;7.10;10.10;;;;;;4998615;28;20457;-81
2022/04/18 01:21:16;;;;;;;6.50;3.30;;;7.00;10.00;;;;;;4999146;28;20454;-81
2022/04/18 01:23:43;;;;;;;7.60;3.23;;;7.00;10.50;;;;;;4999167;28;20478;-81
2022/04/18 01:29:01;;;;;;;6.80;2.87;;;6.90;11.30;;;;;;4998654;28;20462;-81
2022/04/18 01:31:28;;;;;;;6.40;4.00;;;7.00;10.00;;;;;;4999243;28;20493;-81
2022/04/18 01:33:55;;;;;;;6.90;3.80;;;6.90;10.10;;;;;;4999370;28;20480;-81
2022/04/18 01:36:24;;;;;;;5.77;3.20;;;6.90;10.70;;;;;;4999018;28;20452;-81
2022/04/18 01:38:51;;;;;;;7.77;3.60;;;6.80;11.10;;;;;;4998897;28;20472;-81
2022/04/18 01:41:18;;;;;;;7.90;3.60;;;6.60;11.00;;;;;;4999146;28;20461;-81
2022/04/18 01:43:44;;;;;;;8.40;4.00;;;6.50;11.00;;;;;;5033589;23;20487;-80
2022/04/18 01:46:11;;;;;;;7.03;3.60;;;6.50;12.00;;;;;;5014951;28;20994;-83
2022/04/18 01:48:38;;;;;;;6.60;3.07;;;6.40;12.20;;;;;;5014289;28;20457;-80
2022/04/18 01:51:05;;;;;;;5.60;2.70;;;6.30;12.00;;;;;;5015216;28;20457;-79
2022/04/18 01:53:33;;;;;;;6.17;3.13;;;6.40;12.00;;;;;;5014334;28;20480;-79
2022/04/18 01:56:00;;;;;;;6.17;3.00;;;6.50;11.70;;;;;;5003649;28;20478;-80
2022/04/18 01:58:27;;;;;;;6.73;3.20;;;6.40;10.90;;;;;;4994784;28;20458;-80
2022/04/18 02:00:53;;;;;;;8.60;3.77;;;6.40;12.10;;;;;;4996780;28;20461;-80
2022/04/18 02:03:21;;;;;;;7.70;3.50;;;6.30;12.00;;;;;;4995548;28;20474;-82
2022/04/18 02:05:50;;;;;;;6.53;3.60;;;6.30;12.00;;;;;;5010684;28;20473;-80
2022/04/18 02:08:17;;;;;;;7.10;4.40;;;6.10;15.40;;;;;;5014763;28;20453;-80
2022/04/18 02:10:45;;;;;;;7.70;3.63;;;6.00;16.50;;;;;;5002878;28;20830;-80
2022/04/18 02:13:13;;;;;;;6.30;3.33;;;5.80;17.80;;;;;;4995515;28;20481;-80
2022/04/18 02:15:40;;;;;;;6.40;3.63;;;5.60;18.50;;;;;;4995632;28;20541;-80
2022/04/18 02:18:07;;;;;;;10.90;4.90;;;5.60;18.20;;;;;;4994948;28;20460;-82
2022/04/18 02:20:34;;;;;;;5.43;2.93;;;5.60;18.40;;;;;;5006495;28;20954;-81
2022/04/18 02:23:00;;;;;;;7.00;3.60;;;5.50;18.40;;;;;;5015458;28;20477;-79
2022/04/18 02:25:27;;;;;;;9.30;4.80;;;5.50;18.70;;;;;;5003964;28;21005;-80
2022/04/18 02:27:55;;;;;;;6.73;3.37;;;5.60;17.80;;;;;;4995090;28;20450;-80
2022/04/18 02:30:22;;;;;;;7.17;3.20;;;5.60;18.10;;;;;;5002656;28;20468;-80
2022/04/18 02:32:49;;;;;;;8.23;4.20;;;5.50;18.60;;;;;;5013924;28;20510;-80
2022/04/18 02:35:17;;;;;;;7.40;3.80;;;5.50;19.60;;;;;;5006373;28;20456;-80
2022/04/18 02:37:44;;;;;;;9.10;4.10;;;5.50;18.70;;;;;;4994464;28;20465;-79
2022/04/18 02:40:12;;;;;;;6.63;3.60;;;5.50;18.90;;;;;;5000166;28;20450;-80
2022/04/18 02:42:39;;;;;;;8.27;3.90;;;5.50;19.40;;;;;;5014169;28;20488;-80
2022/04/18 02:45:08;;;;;;;7.27;4.00;;;5.40;19.60;;;;;;5009571;28;20497;-80
2022/04/18 02:47:34;;;;;;;7.00;4.10;;;5.30;20.70;;;;;;4996200;28;20458;-82
2022/04/18 02:50:01;;;;;;;7.13;4.00;;;5.20;21.20;;;;;;5000292;28;20449;-80
2022/04/18 02:52:28;;;;;;;6.83;3.93;;;5.20;22.00;;;;;;5015074;28;20484;-80
2022/04/18 02:54:55;;;;;;;8.47;4.97;;;5.20;22.60;;;;;;5016658;28;20525;-80
2022/04/18 02:57:21;;;;;;;7.43;3.77;;;5.10;22.20;;;;;;4999389;28;20458;-80
2022/04/18 02:59:48;;;;;;;7.30;3.60;;;5.10;21.20;;;;;;4998939;28;20450;-80
2022/04/18 03:02:16;;;;;;;13.43;3.73;;;5.20;19.80;;;;;;5019603;28;20811;-79
2022/04/18 03:04:43;;;;;;;7.17;4.17;;;5.40;18.70;;;;;;5008549;28;20955;-79
2022/04/18 03:07:10;;;;;;;8.97;4.10;;;5.40;19.40;;;;;;4994363;28;21072;-80
2022/04/18 03:09:37;;;;;;;12.83;3.90;;;5.40;19.40;;;;;;5006636;28;20484;-79
2022/04/18 03:12:06;;;;;;;6.23;3.33;;;5.30;19.90;;;;;;5007420;28;20462;-80
2022/04/18 03:14:33;;;;;;;6.70;4.30;;;5.30;19.80;;;;;;5006853;28;20865;-80
2022/04/18 03:17:00;;;;;;;10.43;4.27;;;5.10;19.10;;;;;;5004357;28;20816;-80
2022/04/18 03:19:28;;;;;;;9.57;3.67;;;5.20;18.90;;;;;;5003192;28;20452;-80
2022/04/18 03:21:55;;;;;;;7.13;3.50;;;5.40;18.20;;;;;;5007500;28;20456;-81
2022/04/18 03:24:21;;;;;;;10.10;4.10;;;5.20;19.70;;;;;;5000259;28;21110;-81
2022/04/18 03:26:48;;;;;;;9.10;4.50;;;5.10;21.40;;;;;;5009110;28;20477;-80
2022/04/18 03:29:15;;;;;;;6.67;4.10;;;5.00;22.00;;;;;;4995694;28;20479;-80
2022/04/18 03:31:42;;;;;;;22.40;13.20;;;4.70;23.40;;;;;;4999965;28;20821;-81
2022/04/18 03:34:08;;;;;;;9.80;5.10;;;4.60;25.40;;;;;;5001330;28;20485;-84
2022/04/18 03:42:08;;;;;;;8.63;5.03;;;4.00;37.90;;;;;;4998565;28;20453;-81
2022/04/18 03:44:39;;;;;;;6.77;4.30;;;3.90;39.60;;;;;;5013623;28;21012;-81
2022/04/18 03:47:06;;;;;;;9.37;5.00;;;3.70;39.40;;;;;;5016795;28;20475;-79
2022/04/18 03:49:33;;;;;;;12.30;4.40;;;3.70;39.40;;;;;;5011980;28;20453;-82
2022/04/18 03:52:01;;;;;;;6.73;3.97;;;3.50;40.90;;;;;;4998541;28;20477;-80
2022/04/18 03:54:28;;;;;;;7.83;4.90;;;3.40;42.90;;;;;;5004832;28;20461;-80
2022/04/18 03:56:54;;;;;;;8.37;4.60;;;3.30;43.10;;;;;;5005428;28;20446;-80
2022/04/18 03:59:21;;;;;;;7.43;4.50;;;3.20;43.10;;;;;;5003602;28;20804;-81
2022/04/18 04:01:48;;;;;;;9.10;3.97;;;3.10;44.60;;;;;;5009387;28;20457;-80
2022/04/18 04:04:14;;;;;;;10.73;4.07;;;3.10;44.50;;;;;;4996567;28;20995;-80
2022/04/18 04:06:41;;;;;;;7.10;4.43;;;3.00;45.30;;;;;;5001469;28;20474;-81
2022/04/18 04:09:09;;;;;;;7.00;4.70;;;3.00;47.40;;;;;;5004103;28;20450;-80
2022/04/18 04:11:37;;;;;;;10.33;4.53;;;2.90;47.40;;;;;;5014516;28;20975;-81
2022/04/18 04:14:03;;;;;;;9.53;5.40;;;2.90;47.30;;;;;;4999597;28;20478;-80
2022/04/18 04:16:31;;;;;;;10.17;5.70;;;2.80;46.70;;;;;;5001645;28;20827;-82
2022/04/18 04:18:57;;;;;;;9.00;4.83;;;2.70;47.20;;;;;;4997403;28;20457;-81
2022/04/18 04:21:24;;;;;;;7.00;4.77;;;2.60;47.30;;;;;;5014199;28;20457;-81
2022/04/18 04:23:51;;;;;;;6.70;5.20;;;2.60;49.90;;;;;;5006837;28;20476;-81
2022/04/18 04:26:19;;;;;;;6.40;4.77;;;2.60;50.00;;;;;;5002273;28;20473;-80
2022/04/18 04:28:46;;;;;;;8.80;5.83;;;2.60;49.40;;;;;;5005433;28;20454;-80
2022/04/18 04:31:13;;;;;;;8.23;4.47;;;2.50;49.10;;;;;;5011665;28;20950;-80
2022/04/18 04:33:39;;;;;;;7.27;4.70;;;2.40;52.50;;;;;;5010798;28;21118;-79
2022/04/18 04:36:06;;;;;;;9.00;4.90;;;2.40;55.10;;;;;;4998390;28;20462;-80
2022/04/18 04:38:33;;;;;;;8.40;5.90;;;2.30;57.10;;;;;;5001897;28;21026;-83
2022/04/18 04:41:00;;;;;;;6.60;5.07;;;2.40;58.70;;;;;;4996858;28;20504;-80
2022/04/18 04:43:28;;;;;;;7.40;5.00;;;2.40;57.00;;;;;;5013544;28;20552;-80
2022/04/18 04:45:56;;;;;;;7.90;4.73;;;2.40;57.90;;;;;;5018063;28;20535;-84
2022/04/18 04:48:23;;;;;;;7.53;5.80;;;2.40;58.30;;;;;;5002488;28;20450;-81
2022/04/18 04:50:50;;;;;;;9.80;5.77;;;2.20;55.20;;;;;;5001773;28;20453;-82
2022/04/18 04:53:17;;;;;;;10.97;5.80;;;2.20;57.70;;;;;;4998824;28;20470;-81
2022/04/18 04:55:43;;;;;;;7.30;4.90;;;2.20;57.00;;;;;;4998779;28;20465;-81
2022/04/18 04:58:11;;;;;;;9.70;5.10;;;2.20;57.00;;;;;;4999155;28;20858;-82
2022/04/18 05:00:39;;;;;;;10.43;5.40;;;2.30;59.70;;;;;;5016337;28;20500;-81
2022/04/18 05:03:07;;;;;;;9.13;5.50;;;2.30;59.40;;;;;;5017818;28;20476;-81
2022/04/18 05:05:34;;;;;;;7.60;5.17;;;2.50;60.90;;;;;;5001359;28;20458;-81
2022/04/18 05:08:01;;;;;;;6.83;4.63;;;2.50;58.70;;;;;;4997538;28;20530;-81
2022/04/18 05:10:28;;;;;;;5.73;4.47;;;2.70;57.80;;;;;;4998256;28;20462;-81
2022/04/18 05:12:54;;;;;;;9.70;4.90;;;2.80;56.40;;;;;;4996438;28;20903;-81
2022/04/18 05:15:21;;;;;;;9.00;5.63;;;2.90;56.00;;;;;;5012521;28;20468;-83
2022/04/18 05:17:49;;;;;;;8.13;5.40;;;3.00;55.90;;;;;;5017218;28;20456;-81
2022/04/18 05:20:16;;;;;;;6.83;4.77;;;3.20;56.10;;;;;;5012978;28;20453;-81
2022/04/18 05:22:43;;;;;;;7.03;4.63;;;3.20;56.10;;;;;;5016464;28;20486;-81
2022/04/18 05:25:10;;;;;;;6.50;4.50;;;3.40;56.90;;;;;;5002252;28;20528;-81
2022/04/18 05:27:37;;;;;;;6.40;3.87;;;3.90;56.70;;;;;;4998986;28;20485;-82
2022/04/18 05:30:05;;;;;;;6.97;4.30;;;4.30;53.70;;;;;;5010867;28;20461;-83
2022/04/18 05:32:32;;;;;;;8.20;4.33;;;4.70;49.50;;;;;;5012372;28;20484;-81
2022/04/18 05:35:00;;;;;;;5.63;3.67;;;5.00;48.40;;;;;;5016504;28;20466;-81
2022/04/18 05:37:26;;;;;;;11.30;4.73;;;5.40;44.80;;;;;;5013579;28;21091;-82
2022/04/18 05:39:53;;;;;;;8.80;4.40;;;5.60;43.50;;;;;;5007955;28;20451;-81
2022/04/18 05:42:23;;;;;;;7.53;4.20;;;5.70;41.10;;;;;;5006957;28;20449;-81
2022/04/18 05:44:50;;;;;;;9.87;3.90;;;5.80;38.40;;;;;;4997145;28;20473;-81
2022/04/18 05:47:16;;;;;;;9.63;4.70;;;5.80;35.40;;;;;;4995231;28;20477;-83
2022/04/18 05:49:43;;;;;;;7.57;4.67;;;5.90;35.10;;;;;;4996697;28;20476;-84
2022/04/18 05:52:13;;;;;;;8.60;5.10;;;5.90;41.60;;;;;;4996906;28;20458;-81
2022/04/18 05:54:40;;;;;;;6.63;3.83;;;5.90;52.90;;;;;;4998892;28;20454;-82
2022/04/18 05:57:07;;;;;;;10.60;5.03;;;5.90;50.60;;;;;;5000141;28;20456;-81
2022/04/18 05:59:33;;;;;;;9.30;5.07;;;5.90;46.40;;;;;;4996156;28;20456;-82
2022/04/18 06:02:00;;;;;;;7.50;4.70;;;6.00;41.40;;;;;;5003432;28;20457;-81
2022/04/18 06:04:27;;;;;;;8.70;4.07;;;6.10;41.50;;;;;;4997031;28;20478;-80
2022/04/18 06:06:54;;;;;;;10.67;4.97;;;6.10;41.80;;;;;;5002270;28;20469;-83
2022/04/18 06:09:22;;;;;;;7.93;5.00;;;6.10;47.80;;;;;;5005787;28;20465;-84
2022/04/18 06:11:48;;;;;;;9.03;5.60;;;6.10;50.00;;;;;;5006184;28;20476;-82
2022/04/18 06:14:15;;;;;;;8.13;4.30;;;6.20;50.60;;;;;;5002175;28;20473;-82
2022/04/18 06:16:42;;;;;;;7.10;3.70;;;6.20;46.10;;;;;;4997930;28;20455;-81
2022/04/18 06:19:09;;;;;;;6.53;3.83;;;6.40;43.00;;;;;;5005910;28;20465;-83
2022/04/18 06:21:35;;;;;;;6.70;4.10;;;6.60;40.00;;;;;;5002113;28;20466;-83
2022/04/18 06:24:02;;;;;;;8.60;4.13;;;6.80;35.70;;;;;;5010726;28;20477;-82
2022/04/18 06:26:30;;;;;;;7.17;5.00;;;6.90;36.90;;;;;;5009756;28;20470;-82
2022/04/18 06:28:58;;;;;;;8.47;4.00;;;7.00;38.60;;;;;;5007476;28;20453;-82
2022/04/18 06:31:25;;;;;;;6.73;4.07;;;7.20;35.10;;;;;;4999305;28;20508;-81
2022/04/18 06:33:55;;;;;;;7.30;4.37;;;7.40;31.00;;;;;;5000622;28;20469;-84
2022/04/18 06:36:23;;;;;;;6.23;3.80;;;7.60;29.60;;;;;;4999743;28;20447;-82
2022/04/18 06:38:49;;;;;;;7.10;4.33;;;7.80;29.00;;;;;;4996565;28;20450;-82
2022/04/18 06:41:16;;;;;;;9.50;4.30;;;7.90;31.20;;;;;;4997888;28;20454;-82
2022/04/18 06:43:44;;;;;;;7.70;4.13;;;8.00;33.60;;;;;;5006941;28;20481;-82
2022/04/18 06:46:11;;;;;;;7.13;3.80;;;8.20;28.70;;;;;;5010978;28;20540;-80
2022/04/18 06:48:38;;;;;;;6.60;4.07;;;8.30;28.90;;;;;;5003195;28;20884;-83
2022/04/18 06:51:04;;;;;;;6.50;3.37;;;8.30;28.90;;;;;;5006931;28;20837;-82
2022/04/18 06:53:31;;;;;;;6.13;3.47;;;8.50;26.70;;;;;;5018615;28;20465;-82
2022/04/18 06:58:44;;;;;;;7.37;4.30;;;8.80;26.50;;;;;;5009396;28;20449;-82
2022/04/18 07:01:10;;;;;;;10.30;3.77;;;8.80;26.90;;;;;;5011065;28;20464;-81
2022/04/18 07:03:37;;;;;;;6.20;3.77;;;8.90;24.10;;;;;;4998783;28;20480;-81
2022/04/18 07:06:04;;;;;;;8.83;3.40;;;9.00;24.90;;;;;;5008356;28;20453;-83
2022/04/18 07:08:30;;;;;;;6.10;3.13;;;9.10;21.40;;;;;;5006102;28;20450;-81
2022/04/18 07:10:57;;;;;;;6.03;3.43;;;9.20;22.80;;;;;;5000496;28;20465;-84
2022/04/18 07:13:27;;;;;;;5.90;3.90;;;9.30;22.50;;;;;;5006162;28;20549;-82
2022/04/18 07:15:55;;;;;;;7.90;4.43;;;9.60;23.40;;;;;;5012766;28;20460;-83
2022/04/18 07:18:22;;;;;;;10.10;3.77;;;9.50;22.80;;;;;;5014224;28;20445;-83
2022/04/18 07:20:48;;;;;;;7.03;4.13;;;9.70;22.40;;;;;;5006278;28;20454;-81
2022/04/18 07:23:15;;;;;;;6.77;3.80;;;9.70;20.00;;;;;;5000672;28;20481;-82
2022/04/18 07:25:42;;;;;;;5.87;3.50;;;9.80;21.60;;;;;;4995643;28;20457;-82
2022/04/18 07:28:08;;;;;;;6.27;3.57;;;9.90;21.70;;;;;;5000156;28;20478;-80
2022/04/18 07:30:35;;;;;;;7.93;3.87;;;10.00;20.80;;;;;;5008981;28;20453;-81
2022/04/18 07:33:03;;;;;;;7.43;3.77;;;10.20;23.10;;;;;;5007514;28;20861;-81
2022/04/18 07:35:30;;;;;;;7.35;3.63;;;10.20;20.90;;;;;;5004152;28;20479;-82
2022/04/18 07:40:42;;;;;;;7.30;3.60;;;10.50;19.90;;;;;;5016717;28;20473;-82
2022/04/18 07:43:08;;;;;;;6.20;2.83;;;10.70;17.20;;;;;;5035732;23;20481;-79
2022/04/18 07:45:37;;;;;;;6.10;3.40;;;10.70;16.80;;;;;;5018675;28;20962;-80
2022/04/18 07:48:06;;;;;;;7.03;3.40;;;10.90;16.30;;;;;;5018579;28;20542;-81
2022/04/18 07:53:14;;;;;;;7.37;3.90;;;11.20;13.40;;;;;;5015117;28;20529;-81
2022/04/18 07:55:41;;;;;;;7.87;2.80;;;11.50;13.90;;;;;;4999367;28;20532;-79
2022/04/18 07:58:07;;;;;;;7.43;3.27;;;11.90;12.20;;;;;;4999268;28;20456;-80
2022/04/18 08:00:34;;;;;;;6.17;3.40;;;12.40;10.80;;;;;;4998276;28;20883;-82
2022/04/18 08:03:01;;;;;;;5.70;3.33;;;12.80;8.30;;;;;;4998141;28;20534;-81
2022/04/18 08:05:29;;;;;;;7.87;3.30;;;13.20;5.70;;;;;;4998154;28;20450;-81
2022/04/18 08:07:56;;;;;;;8.83;2.87;;;13.40;5.10;;;;;;4999101;28;20478;-82
2022/04/18 08:10:22;;;;;;;5.93;2.70;;;13.60;4.90;;;;;;4998417;28;20982;-81
2022/04/18 08:12:49;;;;;;;7.20;3.10;;;13.90;3.40;;;;;;4999746;28;20836;-82
2022/04/18 08:15:16;;;;;;;6.60;3.13;;;14.30;2.90;;;;;;4999864;28;20461;-80
2022/04/18 08:17:43;;;;;;;7.57;3.03;;;14.50;3.50;;;;;;4997863;28;20559;-81
2022/04/18 08:20:10;;;;;;;6.10;3.70;;;14.90;3.10;;;;;;4998022;28;20476;-81
2022/04/18 08:22:39;;;;;;;7.00;3.53;;;15.10;1.00;;;;;;4998760;28;20452;-82
2022/04/18 08:25:07;;;;;;;6.33;3.43;;;15.40;1.00;;;;;;4998700;28;20537;-81
2022/04/18 08:27:34;;;;;;;6.73;3.47;;;15.60;1.00;;;;;;4998565;28;20478;-81
2022/04/18 08:30:01;;;;;;;5.60;3.13;;;15.70;1.00;;;;;;4999007;28;20465;-83
2022/04/18 08:32:27;;;;;;;17.43;4.30;;;15.90;1.00;;;;;;4999074;28;20503;-83
2022/04/18 08:34:55;;;;;;;7.90;3.90;;;16.00;1.00;;;;;;4998173;28;20474;-83
2022/04/18 08:37:22;;;;;;;7.00;2.70;;;16.10;1.00;;;;;;4999399;28;20459;-83
2022/04/18 08:39:50;;;;;;;6.97;3.47;;;16.40;1.00;;;;;;4999119;28;20462;-83
2022/04/18 08:42:18;;;;;;;7.57;3.10;;;16.70;1.00;;;;;;4998908;28;20464;-81
2022/04/18 08:44:45;;;;;;;7.50;3.30;;;16.70;1.00;;;;;;4998178;28;20464;-83
2022/04/18 08:52:43;;;;;;;6.25;3.35;;;16.80;1.00;;;;;;4999556;28;20825;-82
2022/04/18 08:52:45;;;;;;;6.87;3.80;;;16.90;1.00;;;;;;4998245;28;20450;-80
2022/04/18 08:55:13;;;;;;;9.27;3.60;;;16.90;1.00;;;;;;4998721;28;20480;-81
2022/04/18 08:57:41;;;;;;;5.40;3.00;;;17.00;1.00;;;;;;4998551;28;20506;-81
2022/04/18 09:00:09;;;;;;;7.03;2.90;;;17.50;1.00;;;;;;4995151;28;20465;-80
2022/04/18 09:02:36;;;;;;;7.90;3.37;;;17.60;1.00;;;;;;4996833;28;20958;-80
2022/04/18 09:05:03;;;;;;;7.40;3.70;;;17.40;1.00;;;;;;4995924;28;20840;-81
2022/04/18 09:07:30;;;;;;;7.13;3.33;;;17.40;1.00;;;;;;4997197;28;20483;-80
2022/04/18 09:09:58;;;;;;;7.90;3.20;;;17.70;1.00;;;;;;4996811;28;20462;-80
2022/04/18 09:12:28;;;;;;;6.33;2.90;;;18.10;1.00;;;;;;4997353;28;20477;-80
2022/04/18 09:14:56;;;;;;;7.00;3.27;;;18.80;1.00;;;;;;4996993;28;20471;-81
2022/04/18 09:17:30;;;;;;;6.50;3.77;;;18.90;1.00;;;;;;4997367;28;20450;-81
2022/04/18 09:20:08;;;;;;;6.20;3.13;;;19.10;1.00;;;;;;4996672;28;20555;-80
2022/04/18 09:22:42;;;;;;;6.23;3.67;;;19.10;1.00;;;;;;4997308;28;20991;-80
2022/04/18 09:25:14;;;;;;;8.03;3.30;;;19.40;1.00;;;;;;4997542;28;21049;-80
2022/04/18 09:27:42;;;;;;;7.50;3.47;;;19.20;1.00;;;;;;4996376;28;20562;-81
2022/04/18 09:30:10;;;;;;;6.70;3.67;;;19.20;1.00;;;;;;4996793;28;20957;-81
2022/04/18 09:32:38;;;;;;;7.10;3.67;;;18.70;1.00;;;;;;4997285;28;20483;-80
2022/04/18 09:35:06;;;;;;;7.57;3.70;;;19.30;1.00;;;;;;4996623;28;21294;-80
2022/04/18 09:37:34;;;;;;;7.10;3.67;;;19.60;1.00;;;;;;4997142;28;20457;-80
2022/04/18 09:40:01;;;;;;;6.20;3.50;;;19.50;1.00;;;;;;4997033;28;20462;-81
2022/04/18 09:42:29;;;;;;;6.70;3.70;;;19.40;1.00;;;;;;4996933;28;20486;-79
2022/04/18 09:44:57;;;;;;;8.60;3.60;;;20.10;1.00;;;;;;4996840;28;20509;-81
2022/04/18 09:47:25;;;;;;;6.40;3.07;;;20.80;1.00;;;;;;4997410;28;20485;-80
2022/04/18 09:49:52;;;;;;;7.10;3.77;;;21.10;1.00;;;;;;4996272;28;20472;-80
2022/04/18 09:52:20;;;;;;;8.20;3.77;;;21.40;1.00;;;;;;4996971;28;20463;-81
2022/04/18 09:54:51;;;;;;;6.17;3.47;;;21.40;1.00;;;;;;4996788;28;20488;-81
2022/04/18 09:57:23;;;;;;;6.37;3.90;;;21.60;1.00;;;;;;4996835;28;20457;-81
2022/04/18 09:59:51;;;;;;;8.97;5.30;;;21.40;1.00;;;;;;4996474;28;20462;-80
2022/04/18 10:02:19;;;;;;;6.80;3.77;;;20.70;1.00;;;;;;4997334;28;20442;-81
2022/04/18 10:04:47;;;;;;;6.70;3.80;;;20.80;1.00;;;;;;4996604;28;20473;-81
2022/04/18 10:07:15;;;;;;;7.20;4.13;;;21.20;1.00;;;;;;4997459;28;20452;-83
2022/04/18 10:09:43;;;;;;;8.27;3.90;;;21.70;1.00;;;;;;4996981;28;20448;-83
2022/04/18 10:12:12;;;;;;;10.80;3.70;;;21.80;1.00;;;;;;4996436;28;20456;-83
2022/04/18 10:14:40;;;;;;;8.93;4.53;;;22.30;1.00;;;;;;4998261;28;20515;-83
2022/04/18 10:17:08;;;;;;;6.43;3.63;;;21.90;1.00;;;;;;4998451;28;20456;-83
2022/04/18 10:19:54;;;;;;;8.23;4.13;;;22.50;1.00;;;;;;5001087;28;20468;-83
2022/04/18 10:22:52;;;;;;;9.10;3.43;;;22.70;1.00;;;;;;5001420;28;20462;-83
2022/04/18 10:25:33;;;;;;;6.70;3.50;;;22.80;1.00;;;;;;4995400;28;20461;-83
2022/04/18 10:28:05;;;;;;;7.53;3.67;;;23.50;1.00;;;;;;5000978;28;20457;-83
2022/04/18 10:30:36;;;;;;;7.50;3.67;;;23.60;1.00;;;;;;5001352;28;20951;-83
2022/04/18 10:33:04;;;;;;;7.20;3.70;;;23.50;1.00;;;;;;5002360;28;20955;-83
2022/04/18 10:35:34;;;;;;;5.33;2.90;;;22.90;1.00;;;;;;5002365;28;20471;-82
2022/04/18 10:38:03;;;;;;;5.57;2.80;;;23.60;1.00;;;;;;5002007;28;20481;-83
2022/04/18 10:40:39;;;;;;;9.00;3.40;;;23.60;1.00;;;;;;5001133;28;20476;-82
2022/04/18 10:43:08;;;;;;;5.93;2.73;;;24.10;1.00;;;;;;5001904;28;20830;-82
2022/04/18 10:45:35;;;;;;;6.07;2.90;;;24.30;1.00;;;;;;5001313;28;20480;-82
2022/04/18 10:48:10;;;;;;;6.27;3.23;;;24.20;1.00;;;;;;5000002;28;20424;-82
2022/04/18 10:50:44;;;;;;;6.85;3.60;;;24.00;1.00;;;;;;4999879;28;20455;-82
2022/04/18 10:53:19;;;;;;;7.97;3.63;;;24.20;1.00;;;;;;5001569;28;20198;-82
2022/04/18 10:56:11;;;;;;;6.60;3.60;;;24.50;1.00;;;;;;5002289;28;20486;-83
2022/04/18 10:58:38;;;;;;;5.60;2.83;;;25.40;1.00;;;;;;5000637;28;20619;-82
2022/04/18 11:01:08;;;;;;;7.50;3.40;;;24.90;1.00;;;;;;5000538;28;20482;-83
2022/04/18 11:03:55;;;;;;;5.93;3.00;;;25.40;1.00;;;;;;5001439;28;21056;-82
2022/04/18 11:06:46;;;;;;;5.77;2.90;;;25.30;1.00;;;;;;5002233;28;20461;-83
2022/04/18 11:09:16;;;;;;;7.30;3.40;;;24.90;1.00;;;;;;5000483;28;20476;-82
2022/04/18 11:11:47;;;;;;;6.07;3.27;;;24.20;1.00;;;;;;5001085;28;20897;-82
2022/04/18 11:14:21;;;;;;;5.97;3.50;;;23.50;1.00;;;;;;5001688;28;20473;-82
2022/04/18 11:16:51;;;;;;;5.50;3.10;;;23.90;1.00;;;;;;5001124;28;20480;-82
2022/04/18 11:19:19;;;;;;;9.60;3.87;;;24.00;1.00;;;;;;4999182;28;20484;-82
2022/04/18 11:22:20;;;;;;;7.57;3.20;;;23.80;1.00;;;;;;5001401;28;20428;-82
2022/04/18 11:25:02;;;;;;;5.63;3.27;;;24.70;1.00;;;;;;5000434;28;20506;-83
2022/04/18 11:27:37;;;;;;;5.63;3.27;;;25.20;1.00;;;;;;4999287;28;20453;-83
2022/04/18 11:30:07;;;;;;;10.60;3.27;;;24.90;1.00;;;;;;4999606;28;20496;-83
2022/04/18 11:32:37;;;;;;;5.70;3.60;;;24.50;1.00;;;;;;5000453;28;20468;-83
2022/04/18 11:35:05;;;;;;;5.60;3.23;;;25.10;1.00;;;;;;5001286;28;20529;-83
2022/04/18 11:37:35;;;;;;;5.67;3.20;;;25.90;1.00;;;;;;5000968;28;20494;-82
2022/04/18 11:40:04;;;;;;;6.73;3.70;;;26.20;1.00;;;;;;4999123;28;20460;-83
2022/04/18 11:42:32;;;;;;;6.20;3.40;;;25.90;1.00;;;;;;5000525;28;20460;-83
2022/04/18 11:45:02;;;;;;;9.80;3.13;;;25.80;1.00;;;;;;5000943;28;20970;-83
2022/04/18 11:47:30;;;;;;;5.97;3.33;;;25.40;1.00;;;;;;5001937;28;20476;-83
2022/04/18 11:49:58;;;;;;;6.57;3.27;;;26.60;1.00;;;;;;4999742;28;20453;-83
2022/04/18 11:52:26;;;;;;;6.57;2.50;;;26.50;1.00;;;;;;5000716;28;20454;-83
2022/04/18 11:54:57;;;;;;;5.83;2.90;;;26.90;1.00;;;;;;4999989;28;20474;-83
2022/04/18 11:57:24;;;;;;;6.87;2.93;;;26.60;1.00;;;;;;4998446;28;20454;-83
2022/04/18 11:59:51;;;;;;;9.60;2.60;;;26.50;1.00;;;;;;4998836;28;20485;-83
2022/04/18 12:07:51;;;;;;;6.77;3.20;;;27.30;1.00;;;;;;5000582;28;20867;-83
2022/04/18 12:10:25;;;;;;;8.70;3.80;;;26.80;1.00;;;;;;4997313;28;20429;-83
2022/04/18 12:12:52;;;;;;;5.70;3.10;;;25.70;1.00;;;;;;4998722;28;20470;-83
2022/04/18 12:15:22;;;;;;;5.83;2.20;;;26.10;1.00;;;;;;5001276;28;20450;-83
2022/04/18 12:17:49;;;;;;;8.20;3.93;;;26.50;1.00;;;;;;4997715;28;20922;-83
2022/04/18 12:20:20;;;;;;;7.30;3.13;;;26.00;1.00;;;;;;4998028;28;20907;-83
2022/04/18 12:22:52;;;;;;;6.27;2.60;;;25.30;1.00;;;;;;4999748;28;20454;-83
2022/04/18 12:25:21;;;;;;;7.27;2.60;;;26.30;1.00;;;;;;4997669;28;20454;-83
2022/04/18 12:27:49;;;;;;;4.87;2.20;;;27.10;1.00;;;;;;4999334;28;20461;-83
2022/04/18 12:30:17;;;;;;;5.90;2.70;;;27.30;1.00;;;;;;4999639;28;20453;-83
2022/04/18 12:32:47;;;;;;;5.60;2.90;;;27.80;1.00;;;;;;5001040;28;20457;-83
2022/04/18 12:35:15;;;;;;;6.00;2.80;;;28.20;1.00;;;;;;4999493;28;20469;-83
2022/04/18 12:37:48;;;;;;;5.87;3.47;;;28.60;1.00;;;;;;4997694;28;20874;-83
2022/04/18 12:40:16;;;;;;;5.50;2.50;;;28.60;1.00;;;;;;4998901;28;20433;-83
2022/04/18 12:42:51;;;;;;;5.77;3.03;;;28.60;1.00;;;;;;4998118;28;20458;-82
2022/04/18 12:45:18;;;;;;;5.30;2.83;;;27.60;1.00;;;;;;4997130;28;20465;-83
2022/04/18 12:47:44;;;;;;;5.20;2.57;;;28.30;1.00;;;;;;4999888;28;20481;-83
2022/04/18 12:50:13;;;;;;;5.67;2.73;;;28.60;1.00;;;;;;4997562;28;20425;-83
2022/04/18 12:52:49;;;;;;;5.67;2.53;;;28.00;1.00;;;;;;4999220;28;20524;-82
2022/04/18 12:55:16;;;;;;;5.50;2.73;;;28.50;1.00;;;;;;4999425;28;20484;-84
2022/04/18 12:57:48;;;;;;;8.10;2.53;;;27.90;1.00;;;;;;5000157;28;20461;-83
2022/04/18 13:00:17;;;;;;;7.20;3.50;;;28.90;1.00;;;;;;4998621;28;20456;-83
2022/04/18 13:03:01;;;;;;;8.63;3.03;;;28.70;1.00;;;;;;4996872;28;20491;-82
2022/04/18 13:05:29;;;;;;;7.73;3.37;;;27.50;1.00;;;;;;4999309;28;20521;-83
2022/04/18 13:08:02;;;;;;;5.90;2.40;;;27.60;1.00;;;;;;4999667;28;20454;-83
2022/04/18 13:10:30;;;;;;;6.70;2.77;;;28.70;1.00;;;;;;4998337;28;20458;-82
2022/04/18 13:13:05;;;;;;;6.57;2.83;;;28.90;1.00;;;;;;4999875;28;20461;-83
2022/04/18 13:15:34;;;;;;;6.77;2.27;;;28.10;1.00;;;;;;4999675;28;20453;-83
2022/04/18 13:18:04;;;;;;;5.80;2.17;;;28.70;1.00;;;;;;4997714;28;20436;-83
2022/04/18 13:20:32;;;;;;;5.47;2.70;;;28.00;1.00;;;;;;4998225;28;20450;-83
2022/04/18 13:22:59;;;;;;;7.77;2.60;;;28.50;1.00;;;;;;4998832;28;20461;-83
2022/04/18 13:25:26;;;;;;;7.33;1.90;;;28.40;1.00;;;;;;4999286;28;20454;-83
2022/04/18 13:27:54;;;;;;;5.07;2.87;;;29.20;1.00;;;;;;4980823;28;20529;-83